Danville, VA

12:26 PM EDT on March 28, 2017 (GMT -0400)
Brentwood Community | | Change Station

Elev 548 ft 36.62 °N, 79.40 °W | Updated 8 seconds ago

Mostly Cloudy
Mostly Cloudy
71.4 °F
Feels Like 74 °F
N
1.7
Wind Variable Wind from SSW

Today
High -- | Low -- °F
--% Chance of Precip.
Yesterday
High -- | Low -- °F
Precip. -- in
Pressure 29.90 in
Visibility 10.0 miles
Clouds Few 1500 ft
Mostly Cloudy 9500 ft
Mostly Cloudy 11000 ft
Heat Index 74 °F
Dew Point 62 °F
Humidity 73%
Rainfall 0.27 in
Snow Depth Not available.
7:09 AM 7:36 PM
New Moon, 0% visible
METAR KDAN 281553Z AUTO 26009KT 10SM FEW015 BKN095 BKN110 18/15 A2993 RMK AO2 RAE00 SLP124 P0000 T01830150
Pressure 29.90 in
Visibility 10.0 miles
Clouds Few 1500 ft
Mostly Cloudy 9500 ft
Mostly Cloudy 11000 ft
Heat Index 74 °F
Dew Point 62 °F
Humidity 73%
Rainfall 0.27 in
Snow Depth Not available.
7:09 AM 7:36 PM
New Moon, 0% visible
METAR KDAN 281553Z AUTO 26009KT 10SM FEW015 BKN095 BKN110 18/15 A2993 RMK AO2 RAE00 SLP124 P0000 T01830150

Get Severe Weather Alerts

Thanks for signing up!

Be on the lookout for a verification email in your inbox.

You'll start receiving the daily forecast at 8 AM.

×

10-Day Weather Forecast

Almanac

Astronomy

Mar. 28, 2017 Rise Set
Actual Time
Civil Twilight
Nautical Twilight
Astronomical Twilight
Moon
Length of Visible Light
Length of Day
Tomorrow will be .
, % of the Moon is Illuminated

Today's Extremes

State Highs State Lows

Community

WunderPhotos

Upload Photos

1,962,540 photos uploaded!

WunderBlog® & News

Nearby

Air Quality

  Air Quality AQ Index Pollutant
Not available.

Snow Depth

Station Depth Elevation

Earthquake Activity

City Distance Mag. Time & Date
Minimum magnitude displayed is 2.5.

Earthquake Activity

City Distance Mag. Time & Date
Minimum magnitude displayed is 2.5.

Coastal Water Temperatures

Place Temperature

Stations

Nearby Weather Stations

Station Location Temp. Windchill Dew Point Humidity Wind Precip. Elev Updated Type
                   

Watches & Warnings

There are currently no watches in effect.